createdAt,value
2022-08-25T00:00:17.363Z,5.73
2022-08-25T00:02:55.613Z,5.73
2022-08-25T00:05:29.254Z,5.80
2022-08-25T00:08:00.139Z,6.47
2022-08-25T00:10:28.778Z,6.50
2022-08-25T00:12:55.667Z,5.97
2022-08-25T00:15:23.094Z,6.10
2022-08-25T00:17:50.475Z,6.60
2022-08-25T00:20:18.194Z,6.90
2022-08-25T00:22:45.498Z,7.30
2022-08-25T00:25:12.766Z,7.27
2022-08-25T00:27:39.963Z,6.87
2022-08-25T00:30:07.452Z,6.70
2022-08-25T00:32:34.319Z,6.23
2022-08-25T00:35:01.790Z,6.73
2022-08-25T00:37:28.929Z,6.33
2022-08-25T00:39:59.114Z,6.97
2022-08-25T00:42:26.746Z,6.70
2022-08-25T00:44:54.041Z,6.50
2022-08-25T00:47:20.901Z,6.30
2022-08-25T00:50:00.116Z,7.00
2022-08-25T00:52:36.653Z,6.97
2022-08-25T00:55:14.109Z,6.80
2022-08-25T00:57:46.746Z,7.00
2022-08-25T01:00:16.466Z,7.93
2022-08-25T01:02:43.392Z,8.37
2022-08-25T01:05:10.463Z,8.43
2022-08-25T01:07:39.312Z,8.20
2022-08-25T01:10:18.625Z,7.80
2022-08-25T01:12:47.149Z,7.37
2022-08-25T01:15:20.817Z,7.50
2022-08-25T01:17:49.616Z,7.80
2022-08-25T01:20:19.032Z,7.13
2022-08-25T01:22:50.889Z,7.47
2022-08-25T01:25:49.084Z,7.20
2022-08-25T01:28:18.759Z,7.50
2022-08-25T01:30:46.169Z,8.07
2022-08-25T01:33:13.887Z,8.53
2022-08-25T01:35:41.389Z,9.10
2022-08-25T01:38:09.899Z,8.90
2022-08-25T01:40:40.075Z,8.47
2022-08-25T01:43:14.658Z,9.43
2022-08-25T01:45:51.348Z,9.37
2022-08-25T01:48:21.223Z,8.97
2022-08-25T01:50:49.937Z,9.60
2022-08-25T01:53:33.365Z,9.43
2022-08-25T01:56:17.086Z,10.53
2022-08-25T01:58:48.751Z,9.73
2022-08-25T02:01:23.393Z,9.30
2022-08-25T02:03:53.457Z,9.17
2022-08-25T02:06:29.794Z,8.60
2022-08-25T02:09:05.326Z,8.63
2022-08-25T02:11:35.224Z,8.50
2022-08-25T02:14:03.059Z,9.43
2022-08-25T02:16:34.435Z,8.97
2022-08-25T02:19:02.379Z,9.27
2022-08-25T02:21:31.420Z,9.37
2022-08-25T02:23:59.028Z,9.10
2022-08-25T02:26:27.679Z,12.00
2022-08-25T02:28:54.516Z,11.27
2022-08-25T02:31:23.279Z,11.03
2022-08-25T02:33:50.958Z,9.77
2022-08-25T02:36:18.414Z,10.77
2022-08-25T02:38:45.740Z,11.60
2022-08-25T02:41:16.119Z,10.27
2022-08-25T02:43:43.526Z,10.27
2022-08-25T02:46:11.880Z,10.80
2022-08-25T02:48:39.914Z,11.40
2022-08-25T02:51:08.859Z,11.60
2022-08-25T02:53:41.261Z,11.03
2022-08-25T02:56:10.168Z,11.33
2022-08-25T02:58:39.064Z,11.57
2022-08-25T03:01:07.399Z,11.83
2022-08-25T03:03:39.513Z,12.63
2022-08-25T03:06:10.140Z,12.67
2022-08-25T03:08:37.640Z,11.40
2022-08-25T03:11:05.877Z,12.70
2022-08-25T03:13:32.873Z,11.30
2022-08-25T03:16:01.533Z,10.60
2022-08-25T03:18:30.338Z,12.77
2022-08-25T03:21:00.256Z,12.53
2022-08-25T03:23:27.159Z,12.13
2022-08-25T03:26:13.855Z,12.10
2022-08-25T03:28:46.115Z,12.83
2022-08-25T03:31:13.396Z,11.93
2022-08-25T03:33:40.480Z,11.97
2022-08-25T03:36:09.053Z,12.20
2022-08-25T03:38:38.458Z,12.20
2022-08-25T03:41:35.444Z,11.30
2022-08-25T03:44:04.449Z,11.20
2022-08-25T03:46:39.784Z,11.77
2022-08-25T03:49:10.585Z,11.43
2022-08-25T03:51:41.749Z,12.13
2022-08-25T03:54:10.540Z,10.23
2022-08-25T03:56:38.485Z,9.73
2022-08-25T03:59:06.135Z,10.77
2022-08-25T04:01:33.078Z,13.37
2022-08-25T04:03:59.952Z,13.07
2022-08-25T04:06:28.671Z,12.87
2022-08-25T04:08:59.362Z,11.60
2022-08-25T04:11:29.619Z,11.63
2022-08-25T04:13:59.218Z,10.70
2022-08-25T04:16:31.612Z,11.83
2022-08-25T04:19:00.698Z,13.50
2022-08-25T04:21:28.001Z,13.67
2022-08-25T04:23:57.224Z,14.80
2022-08-25T04:26:33.492Z,13.43
2022-08-25T04:29:03.759Z,13.00
2022-08-25T04:31:31.837Z,12.90
2022-08-25T04:34:01.428Z,14.90
2022-08-25T04:36:29.407Z,13.53
2022-08-25T04:38:56.757Z,12.90
2022-08-25T04:41:24.613Z,12.57
2022-08-25T04:43:52.882Z,12.20
2022-08-25T04:46:24.996Z,11.93
2022-08-25T04:48:54.020Z,11.33
2022-08-25T04:51:24.964Z,11.00
2022-08-25T04:53:52.438Z,10.57
2022-08-25T04:56:22.124Z,12.73
2022-08-25T04:58:48.941Z,11.17
2022-08-25T05:01:18.994Z,9.90
2022-08-25T05:03:54.583Z,10.13
2022-08-25T05:06:21.956Z,9.50
2022-08-25T05:08:49.755Z,10.70
2022-08-25T05:11:18.409Z,9.50
2022-08-25T05:13:51.627Z,8.60
2022-08-25T05:16:23.280Z,9.77
2022-08-25T05:18:51.110Z,7.93
2022-08-25T05:21:22.387Z,8.70
2022-08-25T05:23:50.347Z,8.57
2022-08-25T05:26:24.594Z,9.10
2022-08-25T05:28:55.444Z,9.23
2022-08-25T05:31:25.066Z,10.30
2022-08-25T05:33:53.184Z,10.20
2022-08-25T05:36:21.620Z,9.57
2022-08-25T05:38:48.954Z,9.80
2022-08-25T05:41:23.168Z,9.83
2022-08-25T05:43:50.868Z,9.83
2022-08-25T05:46:22.724Z,10.63
2022-08-25T05:48:50.579Z,10.87
2022-08-25T05:51:20.858Z,10.20
2022-08-25T05:53:49.958Z,10.77
2022-08-25T05:56:18.044Z,9.73
2022-08-25T05:58:45.725Z,11.20
2022-08-25T06:01:39.516Z,11.23
2022-08-25T06:04:06.617Z,11.23
2022-08-25T06:06:33.616Z,11.73
2022-08-25T06:09:04.917Z,11.87
2022-08-25T06:11:31.760Z,12.10
2022-08-25T06:13:58.618Z,11.90
2022-08-25T06:16:25.548Z,13.20
2022-08-25T06:18:56.852Z,12.73
2022-08-25T06:21:25.030Z,13.23
2022-08-25T06:23:53.520Z,13.90
2022-08-25T06:26:21.333Z,13.73
2022-08-25T06:28:50.745Z,12.80
2022-08-25T06:31:20.446Z,13.40
2022-08-25T06:33:47.870Z,12.47
2022-08-25T06:36:15.523Z,11.80
2022-08-25T06:38:42.634Z,12.90
2022-08-25T06:41:10.995Z,12.17
2022-08-25T06:43:41.635Z,11.67
2022-08-25T06:46:13.016Z,12.10
2022-08-25T06:48:40.610Z,11.43
2022-08-25T06:51:15.193Z,12.10
2022-08-25T06:53:45.075Z,11.07
2022-08-25T06:56:12.782Z,11.60
2022-08-25T06:58:41.271Z,10.87
2022-08-25T07:01:29.953Z,10.73
2022-08-25T07:04:00.979Z,10.30
2022-08-25T07:06:32.549Z,10.83
2022-08-25T07:09:01.625Z,10.23
2022-08-25T07:11:29.437Z,9.60
2022-08-25T07:13:57.463Z,9.50
2022-08-25T07:16:27.991Z,9.00
2022-08-25T07:18:58.315Z,8.20
2022-08-25T07:21:32.668Z,8.60
2022-08-25T07:24:02.384Z,8.37
2022-08-25T07:26:37.671Z,8.30
2022-08-25T07:29:15.452Z,9.37
2022-08-25T07:31:42.943Z,9.00
2022-08-25T07:34:28.689Z,9.60
2022-08-25T07:36:57.287Z,9.13
2022-08-25T07:39:26.088Z,8.90
2022-08-25T07:41:53.804Z,9.37
2022-08-25T07:44:22.893Z,8.60
2022-08-25T07:46:51.044Z,10.07
2022-08-25T07:49:23.123Z,9.53
2022-08-25T07:52:05.215Z,9.20
2022-08-25T07:54:35.282Z,9.80
2022-08-25T07:57:07.882Z,9.60
2022-08-25T07:59:40.079Z,9.60
2022-08-25T08:02:18.260Z,9.33
2022-08-25T08:04:51.671Z,9.83
2022-08-25T08:07:20.471Z,10.20
2022-08-25T08:09:55.817Z,10.20
2022-08-25T08:12:24.496Z,10.73
2022-08-25T08:14:52.353Z,9.40
2022-08-25T08:17:19.986Z,9.97
2022-08-25T08:19:48.019Z,9.27
2022-08-25T08:22:15.757Z,8.40
2022-08-25T08:24:54.943Z,8.13
2022-08-25T08:27:24.317Z,8.20
2022-08-25T08:29:51.280Z,7.97
2022-08-25T08:32:18.613Z,8.30
2022-08-25T08:34:51.109Z,7.67
2022-08-25T08:37:20.367Z,7.30
2022-08-25T08:39:51.311Z,8.27
2022-08-25T08:42:46.984Z,6.80
2022-08-25T08:45:22.767Z,7.77
2022-08-25T08:48:21.448Z,7.00
2022-08-25T08:51:44.589Z,7.50
2022-08-25T08:54:18.757Z,7.20
2022-08-25T08:56:50.656Z,7.47
2022-08-25T08:59:21.682Z,6.20
2022-08-25T09:01:56.479Z,6.77
2022-08-25T09:04:33.762Z,6.67
2022-08-25T09:07:04.322Z,7.17
2022-08-25T09:09:35.823Z,6.47
2022-08-25T09:12:21.160Z,6.63
2022-08-25T09:15:16.671Z,6.90
2022-08-25T09:18:09.630Z,6.80
2022-08-25T09:20:44.926Z,7.00
2022-08-25T09:23:33.316Z,6.67
2022-08-25T09:26:15.808Z,6.60
2022-08-25T09:28:53.239Z,6.03
2022-08-25T09:31:26.452Z,5.43
2022-08-25T09:33:58.109Z,5.60
2022-08-25T09:36:25.562Z,5.73
2022-08-25T09:38:52.562Z,6.17
2022-08-25T09:41:48.047Z,6.47
2022-08-25T09:44:26.017Z,6.90
2022-08-25T09:47:04.859Z,6.75
2022-08-25T09:49:36.091Z,6.63
2022-08-25T09:52:19.088Z,6.78
2022-08-25T09:54:47.772Z,6.05
2022-08-25T09:57:43.483Z,5.93
2022-08-25T10:00:25.093Z,5.88
2022-08-25T10:03:08.157Z,5.70
2022-08-25T10:05:59.035Z,5.80
2022-08-25T10:08:46.010Z,5.88
2022-08-25T10:11:28.981Z,6.30
2022-08-25T10:14:33.861Z,5.85
2022-08-25T10:17:24.732Z,5.80
2022-08-25T10:20:13.304Z,6.55
2022-08-25T10:22:42.381Z,6.05
2022-08-25T10:25:14.891Z,6.50
2022-08-25T10:27:58.472Z,5.85
2022-08-25T10:30:34.404Z,5.53
2022-08-25T10:33:19.310Z,5.35
2022-08-25T10:35:49.137Z,5.82
2022-08-25T10:38:46.096Z,5.60
2022-08-25T10:41:32.693Z,5.93
2022-08-25T10:44:45.810Z,5.68
2022-08-25T10:47:40.876Z,6.47
2022-08-25T10:50:29.373Z,6.00
2022-08-25T10:53:10.596Z,5.40
2022-08-25T10:55:48.614Z,4.97
2022-08-25T10:58:37.435Z,5.13
2022-08-25T11:01:10.148Z,5.80
2022-08-25T11:03:47.400Z,6.07
2022-08-25T11:06:20.331Z,6.00
2022-08-25T11:09:03.499Z,6.00
2022-08-25T11:11:55.386Z,6.00
2022-08-25T11:14:50.997Z,6.80
2022-08-25T11:17:38.099Z,6.88
2022-08-25T11:20:15.254Z,6.38
2022-08-25T11:23:25.158Z,6.00
2022-08-25T11:25:55.859Z,6.97
2022-08-25T11:28:43.501Z,6.57
2022-08-25T11:31:11.440Z,6.95
2022-08-25T11:33:39.446Z,6.88
2022-08-25T11:36:32.188Z,6.75
2022-08-25T11:39:09.831Z,6.53
2022-08-25T11:42:02.088Z,6.85
2022-08-25T11:44:51.867Z,6.70
2022-08-25T11:47:38.761Z,6.63
2022-08-25T11:50:30.117Z,6.82
2022-08-25T11:53:37.846Z,7.13
2022-08-25T11:56:08.996Z,6.95
2022-08-25T11:58:41.027Z,6.88
2022-08-25T12:01:30.888Z,7.15
2022-08-25T12:04:31.106Z,7.00
2022-08-25T12:07:07.315Z,6.88
2022-08-25T12:09:51.882Z,6.97
2022-08-25T12:12:37.733Z,6.65
2022-08-25T12:15:53.443Z,6.85
2022-08-25T12:18:22.864Z,6.95
2022-08-25T12:20:56.386Z,7.63
2022-08-25T12:23:45.322Z,7.53
2022-08-25T12:26:21.253Z,6.72
2022-08-25T12:29:02.959Z,6.43
2022-08-25T12:31:51.808Z,6.80
2022-08-25T12:34:32.041Z,7.20
2022-08-25T12:37:23.416Z,6.70
2022-08-25T12:39:50.158Z,7.07
2022-08-25T12:42:29.491Z,7.70
2022-08-25T12:45:24.538Z,7.60
2022-08-25T12:47:54.605Z,8.05
2022-08-25T12:50:48.085Z,8.30
2022-08-25T12:53:36.244Z,8.57
2022-08-25T12:56:08.061Z,8.25
2022-08-25T12:59:00.844Z,8.70
2022-08-25T13:01:28.234Z,8.43
2022-08-25T13:04:30.875Z,8.00
2022-08-25T13:07:21.925Z,8.35
2022-08-25T13:10:13.563Z,8.65
2022-08-25T13:12:48.171Z,8.18
2022-08-25T13:15:25.503Z,8.60
2022-08-25T13:18:02.485Z,8.93
2022-08-25T13:20:30.852Z,8.93
2022-08-25T13:23:00.682Z,8.68
2022-08-25T13:25:32.096Z,7.88
2022-08-25T13:28:02.985Z,8.05
2022-08-25T13:30:37.022Z,7.43
2022-08-25T13:33:21.946Z,7.85
2022-08-25T13:36:18.170Z,8.43
2022-08-25T13:38:47.632Z,8.85
2022-08-25T13:41:29.602Z,9.35
2022-08-25T13:43:59.034Z,9.00
2022-08-25T13:46:28.022Z,9.10
2022-08-25T13:49:05.229Z,9.32
2022-08-25T13:51:33.130Z,8.93
2022-08-25T13:54:03.306Z,8.98
2022-08-25T13:56:41.617Z,8.32
2022-08-25T13:59:40.225Z,9.15
2022-08-25T14:02:15.278Z,9.25
2022-08-25T14:04:51.493Z,8.82
2022-08-25T14:07:22.842Z,8.30
2022-08-25T14:09:55.345Z,8.55
2022-08-25T14:12:33.551Z,8.57
2022-08-25T14:15:01.731Z,8.75
2022-08-25T14:17:39.108Z,8.95
2022-08-25T14:20:17.095Z,8.88
2022-08-25T14:22:43.956Z,8.50
2022-08-25T14:25:11.372Z,8.35
2022-08-25T14:28:03.660Z,9.32
2022-08-25T14:30:33.301Z,7.80
2022-08-25T14:33:02.289Z,9.27
2022-08-25T14:35:29.549Z,9.55
2022-08-25T14:37:58.644Z,9.43
2022-08-25T14:40:25.430Z,12.55
2022-08-25T14:42:52.264Z,8.32
2022-08-25T14:45:19.360Z,9.60
2022-08-25T14:47:49.848Z,10.57
2022-08-25T14:50:20.106Z,9.73
2022-08-25T14:52:48.233Z,9.45
2022-08-25T14:55:31.247Z,11.35
2022-08-25T14:57:58.955Z,9.48
2022-08-25T15:00:26.228Z,9.70
2022-08-25T15:02:53.540Z,9.38
2022-08-25T15:05:27.164Z,11.63
2022-08-25T15:08:14.442Z,9.82
2022-08-25T15:10:42.164Z,11.68
2022-08-25T15:13:10.780Z,10.75
2022-08-25T15:15:52.627Z,12.45
2022-08-25T15:18:21.102Z,10.52
2022-08-25T15:20:50.094Z,10.65
2022-08-25T15:23:18.500Z,11.15
2022-08-25T15:25:47.409Z,9.85
2022-08-25T15:28:17.284Z,12.75
2022-08-25T15:30:45.735Z,20.02
2022-08-25T15:33:13.570Z,11.05
2022-08-25T15:35:41.446Z,10.27
2022-08-25T15:38:08.609Z,11.75
2022-08-25T15:40:37.580Z,10.65
2022-08-25T15:43:05.602Z,10.10
2022-08-25T15:45:35.754Z,9.98
2022-08-25T15:48:02.721Z,10.30
2022-08-25T15:50:30.443Z,10.30
2022-08-25T15:52:57.794Z,10.07
2022-08-25T15:55:25.066Z,10.82
2022-08-25T15:57:51.827Z,12.02
2022-08-25T16:00:19.438Z,12.55
2022-08-25T16:02:48.366Z,11.10
2022-08-25T16:05:16.484Z,10.70
2022-08-25T16:07:45.971Z,13.48
2022-08-25T16:10:13.575Z,11.07
2022-08-25T16:12:42.758Z,11.52
2022-08-25T16:15:12.104Z,10.88
2022-08-25T16:17:40.682Z,10.15
2022-08-25T16:20:13.879Z,16.27
2022-08-25T16:22:41.821Z,10.23
2022-08-25T16:25:10.641Z,9.88
2022-08-25T16:27:37.747Z,10.07
2022-08-25T16:30:08.072Z,10.23
2022-08-25T16:32:35.648Z,11.20
2022-08-25T16:35:03.456Z,10.00
2022-08-25T16:37:30.309Z,10.30
2022-08-25T16:39:57.517Z,11.00
2022-08-25T16:42:26.102Z,11.70
2022-08-25T16:44:54.131Z,10.18
2022-08-25T16:47:25.099Z,11.80
2022-08-25T16:49:54.165Z,10.68
2022-08-25T16:52:40.745Z,10.05
2022-08-25T16:55:14.189Z,10.13
2022-08-25T16:57:43.752Z,9.77
2022-08-25T17:00:13.801Z,9.85
2022-08-25T17:02:41.475Z,9.98
2022-08-25T17:05:11.244Z,9.90
2022-08-25T17:07:38.576Z,9.50
2022-08-25T17:10:07.394Z,12.00
2022-08-25T17:12:39.517Z,9.60
2022-08-25T17:15:07.585Z,11.73
2022-08-25T17:17:36.278Z,9.68
2022-08-25T17:20:04.720Z,12.32
2022-08-25T17:22:31.735Z,10.70
2022-08-25T17:25:00.934Z,9.90
2022-08-25T17:27:28.765Z,9.05
2022-08-25T17:29:55.836Z,10.10
2022-08-25T17:32:28.902Z,9.60
2022-08-25T17:34:57.807Z,10.25
2022-08-25T17:37:25.063Z,11.07
2022-08-25T17:40:02.426Z,10.73
2022-08-25T17:42:31.632Z,9.80
2022-08-25T17:44:58.639Z,9.63
2022-08-25T17:47:27.201Z,9.30
2022-08-25T17:49:54.341Z,10.05
2022-08-25T17:52:25.609Z,9.30
2022-08-25T17:54:52.885Z,9.35
2022-08-25T17:57:19.857Z,9.93
2022-08-25T17:59:48.179Z,9.90
2022-08-25T18:02:15.056Z,9.57
2022-08-25T18:04:42.235Z,10.18
2022-08-25T18:07:10.140Z,9.20
2022-08-25T18:09:36.911Z,12.93
2022-08-25T18:12:04.286Z,10.00
2022-08-25T18:14:31.127Z,9.65
2022-08-25T18:16:57.939Z,10.10
2022-08-25T18:19:24.675Z,11.23
2022-08-25T18:21:52.526Z,9.75
2022-08-25T18:24:19.451Z,10.65
2022-08-25T18:26:46.952Z,9.70
2022-08-25T18:29:14.003Z,9.65
2022-08-25T18:31:44.438Z,9.40
2022-08-25T18:34:11.703Z,9.95
2022-08-25T18:36:40.625Z,9.87
2022-08-25T18:39:25.863Z,10.13
2022-08-25T18:41:52.592Z,10.77
2022-08-25T18:44:19.961Z,10.63
2022-08-25T18:46:46.846Z,10.73
2022-08-25T18:49:18.378Z,10.00
2022-08-25T18:51:46.734Z,11.10
2022-08-25T18:54:22.776Z,11.20
2022-08-25T18:56:54.311Z,9.87
2022-08-25T18:59:23.518Z,10.70
2022-08-25T19:01:51.724Z,10.47
2022-08-25T19:04:18.515Z,10.93
2022-08-25T19:06:45.289Z,10.90
2022-08-25T19:09:12.062Z,10.80
2022-08-25T19:11:39.003Z,10.93
2022-08-25T19:14:12.019Z,10.43
2022-08-25T19:16:42.324Z,11.80
2022-08-25T19:19:12.992Z,12.47
2022-08-25T19:21:43.690Z,16.67
2022-08-25T19:24:12.208Z,13.10
2022-08-25T19:26:39.621Z,11.23
2022-08-25T19:29:12.444Z,11.10
2022-08-25T19:31:40.781Z,11.70
2022-08-25T19:34:11.571Z,10.70
2022-08-25T19:36:38.620Z,11.53
2022-08-25T19:39:08.048Z,11.87
2022-08-25T19:41:35.464Z,12.00
2022-08-25T19:44:03.748Z,11.57
2022-08-25T19:46:35.334Z,12.30
2022-08-25T19:49:08.374Z,12.97
2022-08-25T19:51:43.889Z,12.90
2022-08-25T19:54:15.305Z,11.43
2022-08-25T19:56:43.606Z,11.70
2022-08-25T19:59:23.359Z,11.60
2022-08-25T20:01:50.383Z,11.33
2022-08-25T20:04:17.264Z,12.33
2022-08-25T20:06:48.333Z,11.27
2022-08-25T20:09:20.793Z,12.17
2022-08-25T20:12:03.548Z,12.60
2022-08-25T20:14:34.060Z,11.83
2022-08-25T20:17:02.228Z,11.83
2022-08-25T20:19:31.809Z,11.27
2022-08-25T20:21:58.968Z,11.67
2022-08-25T20:24:44.318Z,12.40
2022-08-25T20:27:11.897Z,11.87
2022-08-25T20:29:38.760Z,11.00
2022-08-25T20:32:05.881Z,11.33
2022-08-25T20:34:33.098Z,11.20
2022-08-25T20:37:00.838Z,11.80
2022-08-25T20:39:27.794Z,11.20
2022-08-25T20:41:54.926Z,11.77
2022-08-25T20:44:23.368Z,12.00
2022-08-25T20:46:51.682Z,11.40
2022-08-25T20:49:21.541Z,10.87
2022-08-25T20:51:48.333Z,11.33
2022-08-25T20:54:18.915Z,12.13
2022-08-25T20:56:45.923Z,12.07
2022-08-25T20:59:13.813Z,12.70
2022-08-25T21:01:42.365Z,12.07
2022-08-25T21:04:14.291Z,12.30
2022-08-25T21:06:42.780Z,12.47
2022-08-25T21:09:15.673Z,12.57
2022-08-25T21:11:44.151Z,12.63
2022-08-25T21:14:12.281Z,13.03
2022-08-25T21:16:41.108Z,12.87
2022-08-25T21:19:10.982Z,12.73
2022-08-25T21:21:39.026Z,12.70
2022-08-25T21:24:09.815Z,12.73
2022-08-25T21:26:37.355Z,12.67
2022-08-25T21:29:15.324Z,13.10
2022-08-25T21:31:42.712Z,13.00
2022-08-25T21:34:11.653Z,13.87
2022-08-25T21:36:38.939Z,13.70
2022-08-25T21:39:06.165Z,13.50
2022-08-25T21:41:35.627Z,14.17
2022-08-25T21:44:04.529Z,13.07
2022-08-25T21:46:33.653Z,13.67
2022-08-25T21:49:06.212Z,14.50
2022-08-25T21:51:43.349Z,15.30
2022-08-25T21:54:13.968Z,15.90
2022-08-25T21:56:42.520Z,17.10
2022-08-25T21:59:13.485Z,15.30
2022-08-25T22:01:41.477Z,14.17
2022-08-25T22:04:10.262Z,16.53
2022-08-25T22:06:38.916Z,16.27
2022-08-25T22:09:08.325Z,15.07
2022-08-25T22:11:36.150Z,15.40
2022-08-25T22:14:03.743Z,16.07
2022-08-25T22:16:33.047Z,15.17
2022-08-25T22:19:00.851Z,15.53
2022-08-25T22:21:28.178Z,16.00
2022-08-25T22:23:58.327Z,16.47
2022-08-25T22:26:29.143Z,16.87
2022-08-25T22:28:58.363Z,15.47
2022-08-25T22:31:27.417Z,13.50
2022-08-25T22:33:57.732Z,13.60
2022-08-25T22:36:30.969Z,13.67
2022-08-25T22:38:59.141Z,15.13
2022-08-25T22:41:28.263Z,15.20
2022-08-25T22:43:56.690Z,14.93
2022-08-25T22:46:27.945Z,14.70
2022-08-25T22:48:55.887Z,14.93
2022-08-25T22:51:30.344Z,16.27
2022-08-25T22:53:59.924Z,17.63
2022-08-25T22:56:30.950Z,16.27
2022-08-25T22:58:59.905Z,18.20
2022-08-25T23:01:27.208Z,19.37
2022-08-25T23:03:54.470Z,18.87
2022-08-25T23:06:25.115Z,18.30
2022-08-25T23:08:54.059Z,18.47
2022-08-25T23:11:23.266Z,18.23
2022-08-25T23:13:50.378Z,18.10
2022-08-25T23:16:17.786Z,16.23
2022-08-25T23:18:46.961Z,17.50
2022-08-25T23:21:38.207Z,15.97
2022-08-25T23:24:09.097Z,15.57
2022-08-25T23:26:42.459Z,15.70
2022-08-25T23:29:17.883Z,15.60
2022-08-25T23:31:47.696Z,16.30
2022-08-25T23:34:16.483Z,16.30
2022-08-25T23:36:46.809Z,15.37
2022-08-25T23:39:13.811Z,16.33
2022-08-25T23:41:41.649Z,16.90
2022-08-25T23:44:11.925Z,16.43
2022-08-25T23:46:45.205Z,16.33
2022-08-25T23:49:14.685Z,16.57
2022-08-25T23:51:48.098Z,16.40
2022-08-25T23:54:16.412Z,16.80
2022-08-25T23:56:52.029Z,16.50
2022-08-25T23:59:24.552Z,17.57
